首页
METAR-TAF:

METAR-TAF

机场 :

波纳佩国际机场

波纳佩, 密克罗尼西亚群岛

纬度: 06-59N, 经度: 158-12E, 海拔: 2米

当前天气观测

该预报发布于24分钟前的03:50 UTC
风速7节,风向北转东北
温度 31°C
湿度 71%
气压 1009 hPa
能見度: 24.1公里
多云层高于1800英尺, 塔状积云.
多云层高于30000英尺

METAR: PTPN 230350Z 03007KT 15SM BKN018TCU BKN300 31/25 A2979 RMK TCU SE

时间: 15:14 (04:14 UTC)

预报

该预报发布于4小时和54分钟前的23:20 UTC
预报有效从23日的 00点(UTC)到 23日的 24点(UTC)
风速4节,风向多变
能見度: 10公里
少量云层高于1800英尺
少量云层高于5000英尺
短暂存在
从 23日的 01点(UTC)到 23日的 04点(UTC)
能見度: 8.0公里
多云层高于1700英尺
阴天层高于4000英尺
小阵雨

TAF: PTPN 222320Z 2300/2324 VRB04KT P6SM FEW018 FEW050 TEMPO 2301/2304 5SM -SHRA BKN017 OVC040

超过4000个机场的气象观测和天气预报(METAR&TAF报告)。

可查询的气象台以黄色和红色小点在地图上表示。

将鼠标移到小点上方,可查看气象台名称。

然后点击查看天气观测和预报。

如需切换地图:点击带黑十字的绿色按钮放大地图;点击带横线的绿色按钮缩小地图;或者点击绿色箭头查看邻近地区的地图。


METAR-TAF: